sensor_id;sensor_type;location;lat;lon;timestamp;temperature;humidity
22779;DHT22;11556;51.194;3.800;2023-03-11T00:02:06;1.90;99.90
22779;DHT22;11556;51.194;3.800;2023-03-11T00:04:31;1.90;99.90
22779;DHT22;11556;51.194;3.800;2023-03-11T00:06:57;2.00;99.90
22779;DHT22;11556;51.194;3.800;2023-03-11T00:09:23;1.90;99.90
22779;DHT22;11556;51.194;3.800;2023-03-11T00:11:48;1.90;99.90
22779;DHT22;11556;51.194;3.800;2023-03-11T00:14:14;1.80;99.90
22779;DHT22;11556;51.194;3.800;2023-03-11T00:16:40;1.70;99.90
22779;DHT22;11556;51.194;3.800;2023-03-11T00:19:05;1.70;99.90
22779;DHT22;11556;51.194;3.800;2023-03-11T00:21:31;1.60;99.90
22779;DHT22;11556;51.194;3.800;2023-03-11T00:23:56;1.60;99.90
22779;DHT22;11556;51.194;3.800;2023-03-11T00:26:26;1.60;99.90
22779;DHT22;11556;51.194;3.800;2023-03-11T00:28:51;1.60;99.90
22779;DHT22;11556;51.194;3.800;2023-03-11T00:31:20;1.70;99.90
22779;DHT22;11556;51.194;3.800;2023-03-11T00:33:45;1.60;99.90
22779;DHT22;11556;51.194;3.800;2023-03-11T00:36:22;1.50;99.90
22779;DHT22;11556;51.194;3.800;2023-03-11T00:38:49;1.60;99.90
22779;DHT22;11556;51.194;3.800;2023-03-11T00:41:14;1.60;99.90
22779;DHT22;11556;51.194;3.800;2023-03-11T00:43:40;1.50;99.90
22779;DHT22;11556;51.194;3.800;2023-03-11T00:46:05;1.60;99.90
22779;DHT22;11556;51.194;3.800;2023-03-11T00:48:32;1.50;99.90
22779;DHT22;11556;51.194;3.800;2023-03-11T00:50:58;1.50;99.90
22779;DHT22;11556;51.194;3.800;2023-03-11T00:53:24;1.60;99.90
22779;DHT22;11556;51.194;3.800;2023-03-11T00:55:49;1.60;99.90
22779;DHT22;11556;51.194;3.800;2023-03-11T00:58:15;1.80;99.90
22779;DHT22;11556;51.194;3.800;2023-03-11T01:00:41;1.80;99.90
22779;DHT22;11556;51.194;3.800;2023-03-11T01:03:06;1.70;99.90
22779;DHT22;11556;51.194;3.800;2023-03-11T01:05:33;1.70;99.90
22779;DHT22;11556;51.194;3.800;2023-03-11T01:07:59;1.80;99.90
22779;DHT22;11556;51.194;3.800;2023-03-11T01:10:27;2.00;99.90
22779;DHT22;11556;51.194;3.800;2023-03-11T01:12:53;2.20;99.90
22779;DHT22;11556;51.194;3.800;2023-03-11T01:15:24;2.30;99.90
22779;DHT22;11556;51.194;3.800;2023-03-11T01:17:50;2.40;99.90
22779;DHT22;11556;51.194;3.800;2023-03-11T01:20:16;2.70;99.90
22779;DHT22;11556;51.194;3.800;2023-03-11T01:22:42;3.00;99.90
22779;DHT22;11556;51.194;3.800;2023-03-11T01:25:13;3.20;99.90
22779;DHT22;11556;51.194;3.800;2023-03-11T01:27:39;3.10;99.90
22779;DHT22;11556;51.194;3.800;2023-03-11T01:30:05;3.00;99.90
22779;DHT22;11556;51.194;3.800;2023-03-11T01:32:31;3.00;99.90
22779;DHT22;11556;51.194;3.800;2023-03-11T01:34:56;3.00;99.90
22779;DHT22;11556;51.194;3.800;2023-03-11T01:37:22;3.10;99.90
22779;DHT22;11556;51.194;3.800;2023-03-11T01:39:48;3.20;99.90
22779;DHT22;11556;51.194;3.800;2023-03-11T01:42:13;3.20;99.90
22779;DHT22;11556;51.194;3.800;2023-03-11T01:44:39;3.10;99.90
22779;DHT22;11556;51.194;3.800;2023-03-11T01:49:30;3.10;99.90
22779;DHT22;11556;51.194;3.800;2023-03-11T01:52:00;3.20;99.90
22779;DHT22;11556;51.194;3.800;2023-03-11T01:54:31;3.20;99.90
22779;DHT22;11556;51.194;3.800;2023-03-11T01:56:58;3.00;99.90
22779;DHT22;11556;51.194;3.800;2023-03-11T01:59:31;2.90;99.90
22779;DHT22;11556;51.194;3.800;2023-03-11T02:02:04;2.80;99.90
22779;DHT22;11556;51.194;3.800;2023-03-11T02:04:32;2.70;99.90
22779;DHT22;11556;51.194;3.800;2023-03-11T02:06:59;2.90;99.90
22779;DHT22;11556;51.194;3.800;2023-03-11T02:09:25;2.90;99.90
22779;DHT22;11556;51.194;3.800;2023-03-11T02:11:51;2.90;99.90
22779;DHT22;11556;51.194;3.800;2023-03-11T02:14:18;2.70;99.90
22779;DHT22;11556;51.194;3.800;2023-03-11T02:16:44;2.60;99.90
22779;DHT22;11556;51.194;3.800;2023-03-11T02:22:05;2.40;99.90
22779;DHT22;11556;51.194;3.800;2023-03-11T02:24:44;2.20;99.90
22779;DHT22;11556;51.194;3.800;2023-03-11T02:27:11;2.20;99.90
22779;DHT22;11556;51.194;3.800;2023-03-11T02:29:38;2.20;99.90
22779;DHT22;11556;51.194;3.800;2023-03-11T02:32:07;2.10;99.90
22779;DHT22;11556;51.194;3.800;2023-03-11T02:34:37;2.10;99.90
22779;DHT22;11556;51.194;3.800;2023-03-11T02:37:04;2.00;99.90
22779;DHT22;11556;51.194;3.800;2023-03-11T02:42:04;2.10;99.90
22779;DHT22;11556;51.194;3.800;2023-03-11T02:44:31;1.90;99.90
22779;DHT22;11556;51.194;3.800;2023-03-11T02:46:58;2.00;99.90
22779;DHT22;11556;51.194;3.800;2023-03-11T02:49:24;2.00;99.90
22779;DHT22;11556;51.194;3.800;2023-03-11T02:51:50;2.10;99.90
22779;DHT22;11556;51.194;3.800;2023-03-11T02:54:16;2.00;99.90
22779;DHT22;11556;51.194;3.800;2023-03-11T02:56:42;2.00;99.90
22779;DHT22;11556;51.194;3.800;2023-03-11T02:59:08;2.00;99.90
22779;DHT22;11556;51.194;3.800;2023-03-11T03:01:34;1.90;99.90
22779;DHT22;11556;51.194;3.800;2023-03-11T03:03:59;1.90;99.90
22779;DHT22;11556;51.194;3.800;2023-03-11T03:06:25;1.80;99.90
22779;DHT22;11556;51.194;3.800;2023-03-11T03:08:53;1.80;99.90
22779;DHT22;11556;51.194;3.800;2023-03-11T03:11:18;1.70;99.90
22779;DHT22;11556;51.194;3.800;2023-03-11T03:13:44;1.70;99.90
22779;DHT22;11556;51.194;3.800;2023-03-11T03:16:10;1.80;99.90
22779;DHT22;11556;51.194;3.800;2023-03-11T03:18:36;1.80;99.90
22779;DHT22;11556;51.194;3.800;2023-03-11T03:21:02;1.80;99.90
22779;DHT22;11556;51.194;3.800;2023-03-11T03:23:28;1.90;99.90
22779;DHT22;11556;51.194;3.800;2023-03-11T03:25:54;1.90;99.90
22779;DHT22;11556;51.194;3.800;2023-03-11T03:28:19;2.00;99.90
22779;DHT22;11556;51.194;3.800;2023-03-11T03:30:45;2.10;99.90
22779;DHT22;11556;51.194;3.800;2023-03-11T03:33:11;2.20;99.90
22779;DHT22;11556;51.194;3.800;2023-03-11T03:35:41;2.20;99.90
22779;DHT22;11556;51.194;3.800;2023-03-11T03:38:07;2.10;99.90
22779;DHT22;11556;51.194;3.800;2023-03-11T03:40:32;2.00;99.90
22779;DHT22;11556;51.194;3.800;2023-03-11T03:42:58;2.00;99.90
22779;DHT22;11556;51.194;3.800;2023-03-11T03:45:23;2.00;99.90
22779;DHT22;11556;51.194;3.800;2023-03-11T03:47:49;1.80;99.90
22779;DHT22;11556;51.194;3.800;2023-03-11T03:50:14;1.90;99.90
22779;DHT22;11556;51.194;3.800;2023-03-11T03:52:40;1.90;99.90
22779;DHT22;11556;51.194;3.800;2023-03-11T03:55:06;1.70;99.90
22779;DHT22;11556;51.194;3.800;2023-03-11T03:57:32;1.80;99.90
22779;DHT22;11556;51.194;3.800;2023-03-11T03:59:57;1.80;99.90
22779;DHT22;11556;51.194;3.800;2023-03-11T04:02:23;1.80;99.90
22779;DHT22;11556;51.194;3.800;2023-03-11T04:04:49;1.90;99.90
22779;DHT22;11556;51.194;3.800;2023-03-11T04:07:15;1.80;99.90
22779;DHT22;11556;51.194;3.800;2023-03-11T04:09:41;1.80;99.90
22779;DHT22;11556;51.194;3.800;2023-03-11T04:12:12;1.80;99.90
22779;DHT22;11556;51.194;3.800;2023-03-11T04:14:38;1.80;99.90
22779;DHT22;11556;51.194;3.800;2023-03-11T04:17:04;1.90;99.90
22779;DHT22;11556;51.194;3.800;2023-03-11T04:19:30;1.70;99.90
22779;DHT22;11556;51.194;3.800;2023-03-11T04:21:56;1.80;99.90
22779;DHT22;11556;51.194;3.800;2023-03-11T04:24:21;1.60;99.90
22779;DHT22;11556;51.194;3.800;2023-03-11T04:26:47;1.60;99.90
22779;DHT22;11556;51.194;3.800;2023-03-11T04:29:13;1.70;99.90
22779;DHT22;11556;51.194;3.800;2023-03-11T04:31:38;1.70;99.90
22779;DHT22;11556;51.194;3.800;2023-03-11T04:34:04;1.70;99.90
22779;DHT22;11556;51.194;3.800;2023-03-11T04:36:30;1.80;99.90
22779;DHT22;11556;51.194;3.800;2023-03-11T04:38:55;1.80;99.90
22779;DHT22;11556;51.194;3.800;2023-03-11T04:41:22;1.90;99.90
22779;DHT22;11556;51.194;3.800;2023-03-11T04:43:47;2.00;99.90
22779;DHT22;11556;51.194;3.800;2023-03-11T04:46:13;2.10;99.90
22779;DHT22;11556;51.194;3.800;2023-03-11T04:48:39;2.20;99.90
22779;DHT22;11556;51.194;3.800;2023-03-11T04:51:04;2.20;99.90
22779;DHT22;11556;51.194;3.800;2023-03-11T04:53:30;2.00;99.90
22779;DHT22;11556;51.194;3.800;2023-03-11T04:55:56;2.00;99.90
22779;DHT22;11556;51.194;3.800;2023-03-11T04:58:21;2.20;99.90
22779;DHT22;11556;51.194;3.800;2023-03-11T05:00:47;2.10;99.90
22779;DHT22;11556;51.194;3.800;2023-03-11T05:03:13;2.20;99.90
22779;DHT22;11556;51.194;3.800;2023-03-11T05:05:38;2.00;99.90
22779;DHT22;11556;51.194;3.800;2023-03-11T05:08:04;1.90;99.90
22779;DHT22;11556;51.194;3.800;2023-03-11T05:10:30;1.70;99.90
22779;DHT22;11556;51.194;3.800;2023-03-11T05:12:56;1.60;99.90
22779;DHT22;11556;51.194;3.800;2023-03-11T05:15:21;1.40;99.90
22779;DHT22;11556;51.194;3.800;2023-03-11T05:17:47;1.30;99.90
22779;DHT22;11556;51.194;3.800;2023-03-11T05:20:13;1.20;99.90
22779;DHT22;11556;51.194;3.800;2023-03-11T05:22:38;1.10;99.90
22779;DHT22;11556;51.194;3.800;2023-03-11T05:25:05;1.10;99.90
22779;DHT22;11556;51.194;3.800;2023-03-11T05:27:31;1.10;99.90
22779;DHT22;11556;51.194;3.800;2023-03-11T05:29:57;1.00;99.90
22779;DHT22;11556;51.194;3.800;2023-03-11T05:32:23;0.90;99.90
22779;DHT22;11556;51.194;3.800;2023-03-11T05:34:49;0.90;99.90
22779;DHT22;11556;51.194;3.800;2023-03-11T05:37:15;1.00;99.90
22779;DHT22;11556;51.194;3.800;2023-03-11T05:39:40;0.90;99.90
22779;DHT22;11556;51.194;3.800;2023-03-11T05:42:07;0.90;99.90
22779;DHT22;11556;51.194;3.800;2023-03-11T05:44:33;0.90;99.90
22779;DHT22;11556;51.194;3.800;2023-03-11T05:46:59;0.90;99.90
22779;DHT22;11556;51.194;3.800;2023-03-11T05:49:25;0.90;99.90
22779;DHT22;11556;51.194;3.800;2023-03-11T05:51:51;0.80;99.90
22779;DHT22;11556;51.194;3.800;2023-03-11T05:54:18;0.80;99.90
22779;DHT22;11556;51.194;3.800;2023-03-11T05:56:44;0.80;99.90
22779;DHT22;11556;51.194;3.800;2023-03-11T05:59:12;0.90;99.90
22779;DHT22;11556;51.194;3.800;2023-03-11T06:01:38;1.00;99.90
22779;DHT22;11556;51.194;3.800;2023-03-11T06:04:04;1.10;99.90
22779;DHT22;11556;51.194;3.800;2023-03-11T06:06:29;1.10;99.90
22779;DHT22;11556;51.194;3.800;2023-03-11T06:08:55;1.20;99.90
22779;DHT22;11556;51.194;3.800;2023-03-11T06:11:21;1.20;99.90
22779;DHT22;11556;51.194;3.800;2023-03-11T06:13:52;1.30;99.90
22779;DHT22;11556;51.194;3.800;2023-03-11T06:16:19;1.30;99.90
22779;DHT22;11556;51.194;3.800;2023-03-11T06:18:45;1.40;99.90
22779;DHT22;11556;51.194;3.800;2023-03-11T06:21:18;1.40;99.90
22779;DHT22;11556;51.194;3.800;2023-03-11T06:23:44;1.60;99.90
22779;DHT22;11556;51.194;3.800;2023-03-11T06:26:13;1.70;99.90
22779;DHT22;11556;51.194;3.800;2023-03-11T06:28:40;1.80;99.90
22779;DHT22;11556;51.194;3.800;2023-03-11T06:31:11;1.80;99.90
22779;DHT22;11556;51.194;3.800;2023-03-11T06:33:38;1.70;99.90
22779;DHT22;11556;51.194;3.800;2023-03-11T06:36:05;1.80;99.90
22779;DHT22;11556;51.194;3.800;2023-03-11T06:38:32;1.70;99.90
22779;DHT22;11556;51.194;3.800;2023-03-11T06:41:01;1.80;99.90
22779;DHT22;11556;51.194;3.800;2023-03-11T06:43:28;2.10;99.90
22779;DHT22;11556;51.194;3.800;2023-03-11T06:45:54;2.40;99.90
22779;DHT22;11556;51.194;3.800;2023-03-11T06:48:20;2.80;99.90
22779;DHT22;11556;51.194;3.800;2023-03-11T06:50:55;3.40;99.90
22779;DHT22;11556;51.194;3.800;2023-03-11T06:53:22;4.00;99.90
22779;DHT22;11556;51.194;3.800;2023-03-11T06:56:04;4.70;99.90
22779;DHT22;11556;51.194;3.800;2023-03-11T06:58:32;5.40;99.90
22779;DHT22;11556;51.194;3.800;2023-03-11T07:01:12;6.10;99.90
22779;DHT22;11556;51.194;3.800;2023-03-11T07:03:38;7.00;99.90
22779;DHT22;11556;51.194;3.800;2023-03-11T07:06:04;7.90;99.90
22779;DHT22;11556;51.194;3.800;2023-03-11T07:08:30;8.60;99.90
22779;DHT22;11556;51.194;3.800;2023-03-11T07:11:08;9.00;99.90
22779;DHT22;11556;51.194;3.800;2023-03-11T07:13:34;9.50;99.90
22779;DHT22;11556;51.194;3.800;2023-03-11T07:16:05;10.00;99.90
22779;DHT22;11556;51.194;3.800;2023-03-11T07:18:32;10.90;99.90
22779;DHT22;11556;51.194;3.800;2023-03-11T07:21:00;11.80;99.90
22779;DHT22;11556;51.194;3.800;2023-03-11T07:23:26;12.60;99.90
22779;DHT22;11556;51.194;3.800;2023-03-11T07:25:52;13.10;99.90
22779;DHT22;11556;51.194;3.800;2023-03-11T07:28:20;13.40;99.90
22779;DHT22;11556;51.194;3.800;2023-03-11T07:30:47;13.60;99.90
22779;DHT22;11556;51.194;3.800;2023-03-11T07:33:13;13.80;99.90
22779;DHT22;11556;51.194;3.800;2023-03-11T07:35:39;14.10;99.90
22779;DHT22;11556;51.194;3.800;2023-03-11T07:38:05;14.30;99.90
22779;DHT22;11556;51.194;3.800;2023-03-11T07:40:30;14.40;99.90
22779;DHT22;11556;51.194;3.800;2023-03-11T07:42:56;14.70;99.90
22779;DHT22;11556;51.194;3.800;2023-03-11T07:45:22;15.00;99.90
22779;DHT22;11556;51.194;3.800;2023-03-11T07:47:48;15.30;99.90
22779;DHT22;11556;51.194;3.800;2023-03-11T07:50:14;15.60;98.30
22779;DHT22;11556;51.194;3.800;2023-03-11T07:52:41;15.80;95.60
22779;DHT22;11556;51.194;3.800;2023-03-11T07:55:07;16.20;93.80
22779;DHT22;11556;51.194;3.800;2023-03-11T07:57:33;16.40;91.70
22779;DHT22;11556;51.194;3.800;2023-03-11T07:59:59;16.50;90.20
22779;DHT22;11556;51.194;3.800;2023-03-11T08:02:25;16.70;88.60
22779;DHT22;11556;51.194;3.800;2023-03-11T08:04:51;16.80;90.00
22779;DHT22;11556;51.194;3.800;2023-03-11T08:07:17;16.80;87.60
22779;DHT22;11556;51.194;3.800;2023-03-11T08:09:42;17.20;85.40
22779;DHT22;11556;51.194;3.800;2023-03-11T08:12:08;17.50;83.50
22779;DHT22;11556;51.194;3.800;2023-03-11T08:14:34;17.80;83.40
22779;DHT22;11556;51.194;3.800;2023-03-11T08:16:59;18.00;81.00
22779;DHT22;11556;51.194;3.800;2023-03-11T08:19:25;18.20;79.40
22779;DHT22;11556;51.194;3.800;2023-03-11T08:21:50;18.30;74.10
22779;DHT22;11556;51.194;3.800;2023-03-11T08:24:16;18.10;75.00
22779;DHT22;11556;51.194;3.800;2023-03-11T08:26:42;18.10;76.80
22779;DHT22;11556;51.194;3.800;2023-03-11T08:29:08;18.40;76.00
22779;DHT22;11556;51.194;3.800;2023-03-11T08:31:33;18.50;75.10
22779;DHT22;11556;51.194;3.800;2023-03-11T08:34:04;18.70;74.20
22779;DHT22;11556;51.194;3.800;2023-03-11T08:36:31;18.80;71.20
22779;DHT22;11556;51.194;3.800;2023-03-11T08:38:57;18.70;68.20
22779;DHT22;11556;51.194;3.800;2023-03-11T08:41:23;18.80;72.70
22779;DHT22;11556;51.194;3.800;2023-03-11T08:43:48;18.80;72.00
22779;DHT22;11556;51.194;3.800;2023-03-11T08:46:32;18.90;71.90
22779;DHT22;11556;51.194;3.800;2023-03-11T08:48:58;19.10;72.70
22779;DHT22;11556;51.194;3.800;2023-03-11T08:51:25;19.50;68.50
22779;DHT22;11556;51.194;3.800;2023-03-11T08:53:51;19.70;67.40
22779;DHT22;11556;51.194;3.800;2023-03-11T08:56:19;19.90;64.80
22779;DHT22;11556;51.194;3.800;2023-03-11T08:58:45;19.80;64.10
22779;DHT22;11556;51.194;3.800;2023-03-11T09:01:12;19.90;61.80
22779;DHT22;11556;51.194;3.800;2023-03-11T09:03:38;20.20;57.60
22779;DHT22;11556;51.194;3.800;2023-03-11T09:06:06;20.40;60.60
22779;DHT22;11556;51.194;3.800;2023-03-11T09:08:33;20.70;60.40
22779;DHT22;11556;51.194;3.800;2023-03-11T09:10:58;20.90;56.90
22779;DHT22;11556;51.194;3.800;2023-03-11T09:13:24;21.10;56.30
22779;DHT22;11556;51.194;3.800;2023-03-11T09:15:51;20.30;52.30
22779;DHT22;11556;51.194;3.800;2023-03-11T09:18:17;19.20;53.50
22779;DHT22;11556;51.194;3.800;2023-03-11T09:20:43;18.20;55.50
22779;DHT22;11556;51.194;3.800;2023-03-11T09:23:11;17.20;57.00
22779;DHT22;11556;51.194;3.800;2023-03-11T09:25:37;16.20;60.60
22779;DHT22;11556;51.194;3.800;2023-03-11T09:28:03;16.30;60.60
22779;DHT22;11556;51.194;3.800;2023-03-11T09:30:29;16.50;59.20
22779;DHT22;11556;51.194;3.800;2023-03-11T09:32:54;16.80;60.50
22779;DHT22;11556;51.194;3.800;2023-03-11T09:35:20;16.80;59.80
22779;DHT22;11556;51.194;3.800;2023-03-11T09:37:46;16.40;59.60
22779;DHT22;11556;51.194;3.800;2023-03-11T09:40:16;15.80;61.30
22779;DHT22;11556;51.194;3.800;2023-03-11T09:42:59;15.40;63.50
22779;DHT22;11556;51.194;3.800;2023-03-11T09:45:31;15.30;64.10
22779;DHT22;11556;51.194;3.800;2023-03-11T09:50:48;14.60;66.70
22779;DHT22;11556;51.194;3.800;2023-03-11T09:54:03;14.50;69.00
22779;DHT22;11556;51.194;3.800;2023-03-11T09:56:14;15.10;67.00
22779;DHT22;11556;51.194;3.800;2023-03-11T09:59:07;15.50;63.10
22779;DHT22;11556;51.194;3.800;2023-03-11T10:01:38;15.30;64.90
22779;DHT22;11556;51.194;3.800;2023-03-11T10:04:07;15.20;64.50
22779;DHT22;11556;51.194;3.800;2023-03-11T10:06:35;15.10;63.20
22779;DHT22;11556;51.194;3.800;2023-03-11T10:27:15;13.10;64.80
22779;DHT22;11556;51.194;3.800;2023-03-11T10:32:39;13.20;63.40
22779;DHT22;11556;51.194;3.800;2023-03-11T10:35:20;13.30;66.10
22779;DHT22;11556;51.194;3.800;2023-03-11T10:38:14;13.60;64.90
22779;DHT22;11556;51.194;3.800;2023-03-11T10:40:43;13.70;64.30
22779;DHT22;11556;51.194;3.800;2023-03-11T10:43:13;13.70;64.20
22779;DHT22;11556;51.194;3.800;2023-03-11T10:45:41;13.70;63.30
22779;DHT22;11556;51.194;3.800;2023-03-11T10:48:11;14.00;64.20
22779;DHT22;11556;51.194;3.800;2023-03-11T10:50:45;14.00;62.10
22779;DHT22;11556;51.194;3.800;2023-03-11T10:53:16;13.90;60.00
22779;DHT22;11556;51.194;3.800;2023-03-11T10:55:47;13.50;63.20
22779;DHT22;11556;51.194;3.800;2023-03-11T10:58:17;13.30;63.50
22779;DHT22;11556;51.194;3.800;2023-03-11T11:00:43;13.30;68.00
22779;DHT22;11556;51.194;3.800;2023-03-11T11:03:20;13.60;66.80
22779;DHT22;11556;51.194;3.800;2023-03-11T11:06:00;13.80;69.20
22779;DHT22;11556;51.194;3.800;2023-03-11T11:08:26;13.90;66.00
22779;DHT22;11556;51.194;3.800;2023-03-11T11:11:00;14.10;67.10
22779;DHT22;11556;51.194;3.800;2023-03-11T11:13:29;14.00;66.00
22779;DHT22;11556;51.194;3.800;2023-03-11T11:18:47;13.70;66.00
22779;DHT22;11556;51.194;3.800;2023-03-11T11:21:16;13.80;67.30
22779;DHT22;11556;51.194;3.800;2023-03-11T11:26:30;14.00;64.10
22779;DHT22;11556;51.194;3.800;2023-03-11T11:31:41;14.00;64.50
22779;DHT22;11556;51.194;3.800;2023-03-11T11:36:55;14.00;66.70
22779;DHT22;11556;51.194;3.800;2023-03-11T11:39:25;14.30;65.00
22779;DHT22;11556;51.194;3.800;2023-03-11T11:41:52;14.70;61.20
22779;DHT22;11556;51.194;3.800;2023-03-11T11:44:21;15.20;63.90
22779;DHT22;11556;51.194;3.800;2023-03-11T11:46:56;15.50;61.60
22779;DHT22;11556;51.194;3.800;2023-03-11T11:49:30;15.70;58.40
22779;DHT22;11556;51.194;3.800;2023-03-11T11:55:04;15.90;58.40
22779;DHT22;11556;51.194;3.800;2023-03-11T11:57:31;16.00;57.70
22779;DHT22;11556;51.194;3.800;2023-03-11T11:59:57;15.90;57.60
22779;DHT22;11556;51.194;3.800;2023-03-11T12:05:30;16.20;57.00
22779;DHT22;11556;51.194;3.800;2023-03-11T12:08:25;16.50;55.80
22779;DHT22;11556;51.194;3.800;2023-03-11T12:11:05;17.20;54.70
22779;DHT22;11556;51.194;3.800;2023-03-11T12:16:37;18.00;53.10
22779;DHT22;11556;51.194;3.800;2023-03-11T12:22:13;18.50;54.00
22779;DHT22;11556;51.194;3.800;2023-03-11T12:28:24;19.60;52.40
22779;DHT22;11556;51.194;3.800;2023-03-11T12:30:55;19.20;52.50
22779;DHT22;11556;51.194;3.800;2023-03-11T12:33:33;18.40;52.30
22779;DHT22;11556;51.194;3.800;2023-03-11T12:36:02;18.30;54.00
22779;DHT22;11556;51.194;3.800;2023-03-11T12:38:41;18.70;53.30
22779;DHT22;11556;51.194;3.800;2023-03-11T12:46:08;20.60;52.10
22779;DHT22;11556;51.194;3.800;2023-03-11T12:48:35;20.90;48.00
22779;DHT22;11556;51.194;3.800;2023-03-11T12:51:05;19.90;47.40
22779;DHT22;11556;51.194;3.800;2023-03-11T13:01:53;18.20;51.80
22779;DHT22;11556;51.194;3.800;2023-03-11T13:10:10;15.90;56.20
22779;DHT22;11556;51.194;3.800;2023-03-11T13:12:37;15.40;55.50
22779;DHT22;11556;51.194;3.800;2023-03-11T13:33:53;17.20;51.50
22779;DHT22;11556;51.194;3.800;2023-03-11T13:41:47;15.10;54.50
22779;DHT22;11556;51.194;3.800;2023-03-11T13:44:24;14.80;55.90
22779;DHT22;11556;51.194;3.800;2023-03-11T13:47:13;14.60;58.00
22779;DHT22;11556;51.194;3.800;2023-03-11T13:50:14;14.20;58.80
22779;DHT22;11556;51.194;3.800;2023-03-11T13:52:47;14.00;59.00
22779;DHT22;11556;51.194;3.800;2023-03-11T13:55:18;14.20;59.30
22779;DHT22;11556;51.194;3.800;2023-03-11T13:57:49;14.20;61.00
22779;DHT22;11556;51.194;3.800;2023-03-11T14:00:17;15.00;60.60
22779;DHT22;11556;51.194;3.800;2023-03-11T14:03:00;16.30;59.00
22779;DHT22;11556;51.194;3.800;2023-03-11T14:05:32;18.30;54.20
22779;DHT22;11556;51.194;3.800;2023-03-11T14:08:25;19.70;50.90
22779;DHT22;11556;51.194;3.800;2023-03-11T14:10:56;20.40;47.60
22779;DHT22;11556;51.194;3.800;2023-03-11T14:13:24;20.70;46.50
22779;DHT22;11556;51.194;3.800;2023-03-11T14:20:59;19.90;47.50
22779;DHT22;11556;51.194;3.800;2023-03-11T14:23:29;19.50;47.10
22779;DHT22;11556;51.194;3.800;2023-03-11T14:25:58;19.60;47.20
22779;DHT22;11556;51.194;3.800;2023-03-11T14:28:25;19.10;45.90
22779;DHT22;11556;51.194;3.800;2023-03-11T14:31:01;18.10;47.10
22779;DHT22;11556;51.194;3.800;2023-03-11T14:33:27;17.20;50.10
22779;DHT22;11556;51.194;3.800;2023-03-11T14:35:58;16.60;51.10
22779;DHT22;11556;51.194;3.800;2023-03-11T14:38:26;16.10;52.10
22779;DHT22;11556;51.194;3.800;2023-03-11T14:40:56;15.40;53.60
22779;DHT22;11556;51.194;3.800;2023-03-11T14:43:22;15.30;56.10
22779;DHT22;11556;51.194;3.800;2023-03-11T14:45:50;15.70;54.90
22779;DHT22;11556;51.194;3.800;2023-03-11T14:50:47;16.30;52.10
22779;DHT22;11556;51.194;3.800;2023-03-11T14:55:58;16.40;51.80
22779;DHT22;11556;51.194;3.800;2023-03-11T14:59:13;16.90;52.40
22779;DHT22;11556;51.194;3.800;2023-03-11T15:01:24;17.80;50.90
22779;DHT22;11556;51.194;3.800;2023-03-11T15:04:17;18.50;49.00
22779;DHT22;11556;51.194;3.800;2023-03-11T15:06:48;18.80;48.30
22779;DHT22;11556;51.194;3.800;2023-03-11T15:09:17;18.70;47.60
22779;DHT22;11556;51.194;3.800;2023-03-11T15:14:32;19.10;46.60
22779;DHT22;11556;51.194;3.800;2023-03-11T15:17:23;19.30;46.90
22779;DHT22;11556;51.194;3.800;2023-03-11T15:19:56;19.50;45.90
22779;DHT22;11556;51.194;3.800;2023-03-11T15:22:34;19.10;46.50
22779;DHT22;11556;51.194;3.800;2023-03-11T15:25:02;18.50;46.90
22779;DHT22;11556;51.194;3.800;2023-03-11T15:27:34;18.40;47.10
22779;DHT22;11556;51.194;3.800;2023-03-11T15:30:02;18.20;48.20
22779;DHT22;11556;51.194;3.800;2023-03-11T15:37:35;16.90;47.90
22779;DHT22;11556;51.194;3.800;2023-03-11T15:40:27;15.80;48.10
22779;DHT22;11556;51.194;3.800;2023-03-11T15:43:17;15.30;49.50
22779;DHT22;11556;51.194;3.800;2023-03-11T15:45:44;14.70;49.00
22779;DHT22;11556;51.194;3.800;2023-03-11T15:48:11;14.30;50.40
22779;DHT22;11556;51.194;3.800;2023-03-11T15:50:46;13.60;52.60
22779;DHT22;11556;51.194;3.800;2023-03-11T15:53:12;13.30;54.40
22779;DHT22;11556;51.194;3.800;2023-03-11T15:55:38;13.00;55.00
22779;DHT22;11556;51.194;3.800;2023-03-11T15:58:06;12.80;56.10
22779;DHT22;11556;51.194;3.800;2023-03-11T16:00:32;12.60;56.60
22779;DHT22;11556;51.194;3.800;2023-03-11T16:02:58;12.50;56.10
22779;DHT22;11556;51.194;3.800;2023-03-11T16:05:26;12.50;56.20
22779;DHT22;11556;51.194;3.800;2023-03-11T16:07:52;12.60;56.40
22779;DHT22;11556;51.194;3.800;2023-03-11T16:10:20;12.50;56.80
22779;DHT22;11556;51.194;3.800;2023-03-11T16:12:46;12.40;57.90
22779;DHT22;11556;51.194;3.800;2023-03-11T16:15:27;12.40;58.80
22779;DHT22;11556;51.194;3.800;2023-03-11T16:17:54;12.20;59.40
22779;DHT22;11556;51.194;3.800;2023-03-11T16:20:22;12.10;60.20
22779;DHT22;11556;51.194;3.800;2023-03-11T16:22:49;12.10;63.20
22779;DHT22;11556;51.194;3.800;2023-03-11T16:25:22;12.10;62.10
22779;DHT22;11556;51.194;3.800;2023-03-11T16:27:52;12.00;64.40
22779;DHT22;11556;51.194;3.800;2023-03-11T16:30:18;11.90;63.60
22779;DHT22;11556;51.194;3.800;2023-03-11T16:32:44;11.70;63.10
22779;DHT22;11556;51.194;3.800;2023-03-11T16:35:10;11.60;63.70
22779;DHT22;11556;51.194;3.800;2023-03-11T16:37:37;11.40;64.70
22779;DHT22;11556;51.194;3.800;2023-03-11T16:40:04;11.30;65.20
22779;DHT22;11556;51.194;3.800;2023-03-11T16:42:32;11.20;65.80
22779;DHT22;11556;51.194;3.800;2023-03-11T16:44:58;11.10;66.00
22779;DHT22;11556;51.194;3.800;2023-03-11T16:47:23;11.20;66.50
22779;DHT22;11556;51.194;3.800;2023-03-11T16:49:49;11.30;66.90
22779;DHT22;11556;51.194;3.800;2023-03-11T16:52:18;11.40;67.40
22779;DHT22;11556;51.194;3.800;2023-03-11T16:54:45;11.40;67.70
22779;DHT22;11556;51.194;3.800;2023-03-11T16:57:11;11.40;69.20
22779;DHT22;11556;51.194;3.800;2023-03-11T16:59:37;11.30;70.40
22779;DHT22;11556;51.194;3.800;2023-03-11T17:02:02;11.30;70.20
22779;DHT22;11556;51.194;3.800;2023-03-11T17:04:28;11.20;69.90
22779;DHT22;11556;51.194;3.800;2023-03-11T17:06:54;11.10;70.70
22779;DHT22;11556;51.194;3.800;2023-03-11T17:09:20;11.10;70.60
22779;DHT22;11556;51.194;3.800;2023-03-11T17:11:48;11.00;70.30
22779;DHT22;11556;51.194;3.800;2023-03-11T17:14:15;10.70;70.40
22779;DHT22;11556;51.194;3.800;2023-03-11T17:16:41;10.30;73.10
22779;DHT22;11556;51.194;3.800;2023-03-11T17:19:06;10.00;75.30
22779;DHT22;11556;51.194;3.800;2023-03-11T17:21:32;9.60;75.70
22779;DHT22;11556;51.194;3.800;2023-03-11T17:23:57;9.50;75.90
22779;DHT22;11556;51.194;3.800;2023-03-11T17:26:24;9.70;76.40
22779;DHT22;11556;51.194;3.800;2023-03-11T17:28:51;9.80;76.70
22779;DHT22;11556;51.194;3.800;2023-03-11T17:31:17;9.80;77.30
22779;DHT22;11556;51.194;3.800;2023-03-11T17:33:43;9.70;79.90
22779;DHT22;11556;51.194;3.800;2023-03-11T17:36:12;9.50;81.20
22779;DHT22;11556;51.194;3.800;2023-03-11T17:38:38;9.30;82.30
22779;DHT22;11556;51.194;3.800;2023-03-11T17:41:08;9.40;86.20
22779;DHT22;11556;51.194;3.800;2023-03-11T17:43:34;9.40;86.90
22779;DHT22;11556;51.194;3.800;2023-03-11T17:46:01;9.30;84.70